sensor_id;sensor_type;location;lat;lon;timestamp;P1;durP1;ratioP1;P2;durP2;ratioP2
5379;SDS011;2713;42.680;23.310;2023-09-19T00:01:33;5.77;;;5.20;;
5379;SDS011;2713;42.680;23.310;2023-09-19T00:04:01;6.47;;;5.50;;
5379;SDS011;2713;42.680;23.310;2023-09-19T00:06:28;11.73;;;5.97;;
5379;SDS011;2713;42.680;23.310;2023-09-19T00:08:56;6.10;;;5.50;;
5379;SDS011;2713;42.680;23.310;2023-09-19T00:11:25;6.90;;;6.20;;
5379;SDS011;2713;42.680;23.310;2023-09-19T00:13:52;5.93;;;5.27;;
5379;SDS011;2713;42.680;23.310;2023-09-19T00:16:19;6.23;;;5.63;;
5379;SDS011;2713;42.680;23.310;2023-09-19T00:18:46;5.57;;;4.97;;
5379;SDS011;2713;42.680;23.310;2023-09-19T00:21:15;6.83;;;6.23;;
5379;SDS011;2713;42.680;23.310;2023-09-19T00:23:42;7.20;;;5.70;;
5379;SDS011;2713;42.680;23.310;2023-09-19T00:26:09;6.07;;;5.57;;
5379;SDS011;2713;42.680;23.310;2023-09-19T00:28:36;7.50;;;5.67;;
5379;SDS011;2713;42.680;23.310;2023-09-19T00:31:03;6.20;;;5.60;;
5379;SDS011;2713;42.680;23.310;2023-09-19T00:33:30;5.63;;;5.13;;
5379;SDS011;2713;42.680;23.310;2023-09-19T00:35:57;9.07;;;6.17;;
5379;SDS011;2713;42.680;23.310;2023-09-19T00:38:26;7.67;;;5.43;;
5379;SDS011;2713;42.680;23.310;2023-09-19T00:40:53;5.90;;;5.30;;
5379;SDS011;2713;42.680;23.310;2023-09-19T00:43:22;6.63;;;5.60;;
5379;SDS011;2713;42.680;23.310;2023-09-19T00:45:50;7.40;;;5.70;;
5379;SDS011;2713;42.680;23.310;2023-09-19T00:48:19;8.97;;;6.00;;
5379;SDS011;2713;42.680;23.310;2023-09-19T00:50:47;7.37;;;5.80;;
5379;SDS011;2713;42.680;23.310;2023-09-19T00:53:17;7.13;;;6.43;;
5379;SDS011;2713;42.680;23.310;2023-09-19T00:55:49;9.23;;;6.60;;
5379;SDS011;2713;42.680;23.310;2023-09-19T00:58:17;10.53;;;7.90;;
5379;SDS011;2713;42.680;23.310;2023-09-19T01:00:44;6.40;;;5.37;;
5379;SDS011;2713;42.680;23.310;2023-09-19T01:03:11;9.33;;;5.90;;
5379;SDS011;2713;42.680;23.310;2023-09-19T01:05:39;7.00;;;5.90;;
5379;SDS011;2713;42.680;23.310;2023-09-19T01:08:07;6.03;;;5.43;;
5379;SDS011;2713;42.680;23.310;2023-09-19T01:10:36;5.87;;;5.37;;
5379;SDS011;2713;42.680;23.310;2023-09-19T01:13:13;8.90;;;5.60;;
5379;SDS011;2713;42.680;23.310;2023-09-19T01:15:51;11.83;;;5.63;;
5379;SDS011;2713;42.680;23.310;2023-09-19T01:18:27;6.93;;;6.00;;
5379;SDS011;2713;42.680;23.310;2023-09-19T01:21:04;8.00;;;5.70;;
5379;SDS011;2713;42.680;23.310;2023-09-19T01:23:39;5.90;;;4.97;;
5379;SDS011;2713;42.680;23.310;2023-09-19T01:26:30;8.00;;;5.30;;
5379;SDS011;2713;42.680;23.310;2023-09-19T01:29:23;5.77;;;5.27;;
5379;SDS011;2713;42.680;23.310;2023-09-19T01:34:41;6.90;;;5.90;;
5379;SDS011;2713;42.680;23.310;2023-09-19T01:37:11;6.70;;;5.10;;
5379;SDS011;2713;42.680;23.310;2023-09-19T01:39:38;8.27;;;5.90;;
5379;SDS011;2713;42.680;23.310;2023-09-19T01:42:05;6.70;;;6.00;;
5379;SDS011;2713;42.680;23.310;2023-09-19T01:44:44;6.70;;;5.50;;
5379;SDS011;2713;42.680;23.310;2023-09-19T01:47:19;6.90;;;6.17;;
5379;SDS011;2713;42.680;23.310;2023-09-19T01:49:56;8.50;;;5.97;;
5379;SDS011;2713;42.680;23.310;2023-09-19T01:52:31;6.50;;;5.80;;
5379;SDS011;2713;42.680;23.310;2023-09-19T01:55:07;8.87;;;6.17;;
5379;SDS011;2713;42.680;23.310;2023-09-19T01:57:38;6.43;;;5.83;;
5379;SDS011;2713;42.680;23.310;2023-09-19T02:00:10;7.33;;;5.83;;
5379;SDS011;2713;42.680;23.310;2023-09-19T02:02:40;7.10;;;6.40;;
5379;SDS011;2713;42.680;23.310;2023-09-19T02:05:12;6.67;;;5.40;;
5379;SDS011;2713;42.680;23.310;2023-09-19T02:07:39;7.20;;;6.20;;
5379;SDS011;2713;42.680;23.310;2023-09-19T02:10:07;8.23;;;6.50;;
5379;SDS011;2713;42.680;23.310;2023-09-19T02:12:35;8.07;;;6.90;;
5379;SDS011;2713;42.680;23.310;2023-09-19T02:15:02;7.90;;;7.00;;
5379;SDS011;2713;42.680;23.310;2023-09-19T02:17:32;7.40;;;6.60;;
5379;SDS011;2713;42.680;23.310;2023-09-19T02:19:59;8.47;;;7.03;;
5379;SDS011;2713;42.680;23.310;2023-09-19T02:22:27;7.73;;;6.90;;
5379;SDS011;2713;42.680;23.310;2023-09-19T02:24:55;8.43;;;7.20;;
5379;SDS011;2713;42.680;23.310;2023-09-19T02:27:25;7.70;;;6.90;;
5379;SDS011;2713;42.680;23.310;2023-09-19T02:29:52;7.70;;;6.90;;
5379;SDS011;2713;42.680;23.310;2023-09-19T02:32:19;6.73;;;6.03;;
5379;SDS011;2713;42.680;23.310;2023-09-19T02:34:47;7.73;;;6.67;;
5379;SDS011;2713;42.680;23.310;2023-09-19T02:37:17;8.70;;;7.37;;
5379;SDS011;2713;42.680;23.310;2023-09-19T02:39:46;7.20;;;6.50;;
5379;SDS011;2713;42.680;23.310;2023-09-19T02:42:12;7.10;;;6.40;;
5379;SDS011;2713;42.680;23.310;2023-09-19T02:44:40;8.53;;;6.00;;
5379;SDS011;2713;42.680;23.310;2023-09-19T02:47:07;9.10;;;6.77;;
5379;SDS011;2713;42.680;23.310;2023-09-19T02:49:34;8.73;;;6.20;;
5379;SDS011;2713;42.680;23.310;2023-09-19T02:52:01;6.73;;;6.07;;
5379;SDS011;2713;42.680;23.310;2023-09-19T02:54:29;7.67;;;6.50;;
5379;SDS011;2713;42.680;23.310;2023-09-19T02:56:57;8.20;;;5.87;;
5379;SDS011;2713;42.680;23.310;2023-09-19T02:59:25;6.40;;;5.90;;
5379;SDS011;2713;42.680;23.310;2023-09-19T03:01:53;8.80;;;6.90;;
5379;SDS011;2713;42.680;23.310;2023-09-19T03:04:20;7.77;;;6.87;;
5379;SDS011;2713;42.680;23.310;2023-09-19T03:06:48;6.83;;;6.00;;
5379;SDS011;2713;42.680;23.310;2023-09-19T03:09:16;10.20;;;7.10;;
5379;SDS011;2713;42.680;23.310;2023-09-19T03:11:44;8.47;;;6.07;;
5379;SDS011;2713;42.680;23.310;2023-09-19T03:14:13;7.23;;;6.63;;
5379;SDS011;2713;42.680;23.310;2023-09-19T03:16:41;8.53;;;7.50;;
5379;SDS011;2713;42.680;23.310;2023-09-19T03:19:10;11.70;;;7.03;;
5379;SDS011;2713;42.680;23.310;2023-09-19T03:21:37;11.20;;;7.20;;
5379;SDS011;2713;42.680;23.310;2023-09-19T03:24:05;8.43;;;7.50;;
5379;SDS011;2713;42.680;23.310;2023-09-19T03:26:32;8.80;;;7.90;;
5379;SDS011;2713;42.680;23.310;2023-09-19T03:28:59;8.60;;;7.70;;
5379;SDS011;2713;42.680;23.310;2023-09-19T03:31:33;10.73;;;8.07;;
5379;SDS011;2713;42.680;23.310;2023-09-19T03:34:03;7.87;;;6.60;;
5379;SDS011;2713;42.680;23.310;2023-09-19T03:36:30;8.27;;;7.30;;
5379;SDS011;2713;42.680;23.310;2023-09-19T03:39:00;8.63;;;7.03;;
5379;SDS011;2713;42.680;23.310;2023-09-19T03:41:29;8.70;;;6.83;;
5379;SDS011;2713;42.680;23.310;2023-09-19T03:43:56;11.80;;;7.80;;
5379;SDS011;2713;42.680;23.310;2023-09-19T03:46:23;11.27;;;7.70;;
5379;SDS011;2713;42.680;23.310;2023-09-19T03:48:51;11.77;;;8.27;;
5379;SDS011;2713;42.680;23.310;2023-09-19T03:51:20;10.67;;;7.80;;
5379;SDS011;2713;42.680;23.310;2023-09-19T03:53:46;9.00;;;7.70;;
5379;SDS011;2713;42.680;23.310;2023-09-19T03:56:14;9.50;;;8.00;;
5379;SDS011;2713;42.680;23.310;2023-09-19T03:58:41;11.53;;;7.90;;
5379;SDS011;2713;42.680;23.310;2023-09-19T04:01:08;10.10;;;7.60;;
5379;SDS011;2713;42.680;23.310;2023-09-19T04:03:35;9.30;;;8.07;;
5379;SDS011;2713;42.680;23.310;2023-09-19T04:06:13;9.70;;;6.93;;
5379;SDS011;2713;42.680;23.310;2023-09-19T04:08:40;8.47;;;6.67;;
5379;SDS011;2713;42.680;23.310;2023-09-19T04:11:07;10.13;;;8.57;;
5379;SDS011;2713;42.680;23.310;2023-09-19T04:13:34;9.87;;;8.63;;
5379;SDS011;2713;42.680;23.310;2023-09-19T04:16:00;13.80;;;9.00;;
5379;SDS011;2713;42.680;23.310;2023-09-19T04:18:28;13.63;;;8.83;;
5379;SDS011;2713;42.680;23.310;2023-09-19T04:20:58;10.90;;;8.70;;
5379;SDS011;2713;42.680;23.310;2023-09-19T04:23:29;13.03;;;9.70;;
5379;SDS011;2713;42.680;23.310;2023-09-19T04:25:56;13.30;;;9.50;;
5379;SDS011;2713;42.680;23.310;2023-09-19T04:28:23;13.77;;;9.50;;
5379;SDS011;2713;42.680;23.310;2023-09-19T04:30:52;11.40;;;9.43;;
5379;SDS011;2713;42.680;23.310;2023-09-19T04:33:20;16.80;;;8.57;;
5379;SDS011;2713;42.680;23.310;2023-09-19T04:35:48;15.00;;;9.23;;
5379;SDS011;2713;42.680;23.310;2023-09-19T04:38:16;11.40;;;8.60;;
5379;SDS011;2713;42.680;23.310;2023-09-19T04:40:44;11.67;;;9.20;;
5379;SDS011;2713;42.680;23.310;2023-09-19T04:43:11;11.53;;;10.10;;
5379;SDS011;2713;42.680;23.310;2023-09-19T04:45:38;10.80;;;9.47;;
5379;SDS011;2713;42.680;23.310;2023-09-19T04:48:05;16.57;;;9.23;;
5379;SDS011;2713;42.680;23.310;2023-09-19T04:50:34;12.03;;;9.03;;
5379;SDS011;2713;42.680;23.310;2023-09-19T04:53:02;9.63;;;8.60;;
5379;SDS011;2713;42.680;23.310;2023-09-19T04:55:29;9.33;;;8.33;;
5379;SDS011;2713;42.680;23.310;2023-09-19T04:57:59;11.37;;;8.80;;
5379;SDS011;2713;42.680;23.310;2023-09-19T05:00:26;16.00;;;9.10;;
5379;SDS011;2713;42.680;23.310;2023-09-19T05:02:56;10.23;;;8.93;;
5379;SDS011;2713;42.680;23.310;2023-09-19T05:05:23;9.23;;;8.13;;
5379;SDS011;2713;42.680;23.310;2023-09-19T05:07:51;9.50;;;8.30;;
5379;SDS011;2713;42.680;23.310;2023-09-19T05:10:19;12.53;;;8.17;;
5379;SDS011;2713;42.680;23.310;2023-09-19T05:12:46;10.93;;;7.60;;
5379;SDS011;2713;42.680;23.310;2023-09-19T05:15:18;11.43;;;7.50;;
5379;SDS011;2713;42.680;23.310;2023-09-19T05:17:47;10.93;;;7.17;;
5379;SDS011;2713;42.680;23.310;2023-09-19T05:20:15;9.70;;;6.83;;
5379;SDS011;2713;42.680;23.310;2023-09-19T05:22:43;9.93;;;7.00;;
5379;SDS011;2713;42.680;23.310;2023-09-19T05:25:11;10.50;;;6.40;;
5379;SDS011;2713;42.680;23.310;2023-09-19T05:27:41;6.80;;;6.10;;
5379;SDS011;2713;42.680;23.310;2023-09-19T05:30:08;10.70;;;6.87;;
5379;SDS011;2713;42.680;23.310;2023-09-19T05:32:37;6.63;;;6.00;;
5379;SDS011;2713;42.680;23.310;2023-09-19T05:35:04;6.97;;;6.27;;
5379;SDS011;2713;42.680;23.310;2023-09-19T05:37:34;7.37;;;6.67;;
5379;SDS011;2713;42.680;23.310;2023-09-19T05:40:02;10.30;;;7.37;;
5379;SDS011;2713;42.680;23.310;2023-09-19T05:42:34;9.90;;;6.13;;
5379;SDS011;2713;42.680;23.310;2023-09-19T05:45:02;9.77;;;7.30;;
5379;SDS011;2713;42.680;23.310;2023-09-19T05:47:31;8.13;;;6.90;;
5379;SDS011;2713;42.680;23.310;2023-09-19T05:49:59;8.47;;;7.23;;
5379;SDS011;2713;42.680;23.310;2023-09-19T05:52:26;8.53;;;7.30;;
5379;SDS011;2713;42.680;23.310;2023-09-19T05:54:52;9.53;;;7.50;;
5379;SDS011;2713;42.680;23.310;2023-09-19T05:57:18;12.80;;;8.90;;
5379;SDS011;2713;42.680;23.310;2023-09-19T05:59:45;8.00;;;6.77;;
5379;SDS011;2713;42.680;23.310;2023-09-19T06:02:13;11.93;;;7.07;;
5379;SDS011;2713;42.680;23.310;2023-09-19T06:04:40;9.37;;;7.10;;
5379;SDS011;2713;42.680;23.310;2023-09-19T06:07:08;7.50;;;6.80;;
5379;SDS011;2713;42.680;23.310;2023-09-19T06:09:36;9.63;;;7.83;;
5379;SDS011;2713;42.680;23.310;2023-09-19T06:12:04;7.77;;;6.40;;
5379;SDS011;2713;42.680;23.310;2023-09-19T06:14:31;9.53;;;7.47;;
5379;SDS011;2713;42.680;23.310;2023-09-19T06:17:17;7.33;;;6.63;;
5379;SDS011;2713;42.680;23.310;2023-09-19T06:19:45;7.07;;;6.37;;
5379;SDS011;2713;42.680;23.310;2023-09-19T06:22:15;7.87;;;7.10;;
5379;SDS011;2713;42.680;23.310;2023-09-19T06:24:44;8.43;;;6.33;;
5379;SDS011;2713;42.680;23.310;2023-09-19T06:27:12;9.27;;;8.03;;
5379;SDS011;2713;42.680;23.310;2023-09-19T06:29:39;9.07;;;6.90;;
5379;SDS011;2713;42.680;23.310;2023-09-19T06:32:06;7.97;;;6.30;;
5379;SDS011;2713;42.680;23.310;2023-09-19T06:34:34;10.37;;;7.10;;
5379;SDS011;2713;42.680;23.310;2023-09-19T06:37:00;8.27;;;6.93;;
5379;SDS011;2713;42.680;23.310;2023-09-19T06:39:30;7.10;;;6.40;;
5379;SDS011;2713;42.680;23.310;2023-09-19T06:41:57;8.60;;;6.53;;
5379;SDS011;2713;42.680;23.310;2023-09-19T06:44:27;8.00;;;6.37;;
5379;SDS011;2713;42.680;23.310;2023-09-19T06:46:54;8.53;;;6.67;;
5379;SDS011;2713;42.680;23.310;2023-09-19T06:49:21;7.97;;;6.53;;
5379;SDS011;2713;42.680;23.310;2023-09-19T06:51:48;7.50;;;6.63;;
5379;SDS011;2713;42.680;23.310;2023-09-19T06:54:15;7.63;;;6.83;;
5379;SDS011;2713;42.680;23.310;2023-09-19T06:56:44;8.00;;;6.50;;
5379;SDS011;2713;42.680;23.310;2023-09-19T06:59:11;8.07;;;7.17;;
5379;SDS011;2713;42.680;23.310;2023-09-19T07:01:39;8.03;;;6.63;;
5379;SDS011;2713;42.680;23.310;2023-09-19T07:04:07;8.80;;;7.03;;
5379;SDS011;2713;42.680;23.310;2023-09-19T07:06:33;7.73;;;6.23;;
5379;SDS011;2713;42.680;23.310;2023-09-19T07:09:01;9.03;;;6.60;;
5379;SDS011;2713;42.680;23.310;2023-09-19T07:11:27;6.53;;;5.90;;
5379;SDS011;2713;42.680;23.310;2023-09-19T07:13:57;8.23;;;6.50;;
5379;SDS011;2713;42.680;23.310;2023-09-19T07:16:24;8.50;;;6.80;;
5379;SDS011;2713;42.680;23.310;2023-09-19T07:18:55;12.17;;;6.90;;
5379;SDS011;2713;42.680;23.310;2023-09-19T07:21:22;7.60;;;6.37;;
5379;SDS011;2713;42.680;23.310;2023-09-19T07:23:49;8.60;;;6.50;;
5379;SDS011;2713;42.680;23.310;2023-09-19T07:26:16;8.77;;;6.50;;
5379;SDS011;2713;42.680;23.310;2023-09-19T07:28:43;12.80;;;7.73;;
5379;SDS011;2713;42.680;23.310;2023-09-19T07:31:11;6.90;;;6.07;;
5379;SDS011;2713;42.680;23.310;2023-09-19T07:33:39;7.47;;;6.13;;
5379;SDS011;2713;42.680;23.310;2023-09-19T07:36:09;7.17;;;6.47;;
5379;SDS011;2713;42.680;23.310;2023-09-19T07:38:38;8.70;;;6.17;;
5379;SDS011;2713;42.680;23.310;2023-09-19T07:41:06;7.33;;;6.33;;
5379;SDS011;2713;42.680;23.310;2023-09-19T07:43:34;8.53;;;6.57;;
5379;SDS011;2713;42.680;23.310;2023-09-19T07:46:02;7.10;;;6.43;;
5379;SDS011;2713;42.680;23.310;2023-09-19T07:48:33;9.27;;;6.27;;
5379;SDS011;2713;42.680;23.310;2023-09-19T07:51:04;7.00;;;6.20;;
5379;SDS011;2713;42.680;23.310;2023-09-19T07:53:31;8.90;;;5.87;;
5379;SDS011;2713;42.680;23.310;2023-09-19T07:56:03;7.30;;;5.53;;
5379;SDS011;2713;42.680;23.310;2023-09-19T07:58:31;10.83;;;5.90;;
5379;SDS011;2713;42.680;23.310;2023-09-19T08:01:02;10.50;;;6.50;;
5379;SDS011;2713;42.680;23.310;2023-09-19T08:03:29;6.50;;;5.90;;
5379;SDS011;2713;42.680;23.310;2023-09-19T08:05:57;10.13;;;6.27;;
5379;SDS011;2713;42.680;23.310;2023-09-19T08:08:24;9.83;;;6.67;;
5379;SDS011;2713;42.680;23.310;2023-09-19T08:10:52;12.13;;;7.30;;
5379;SDS011;2713;42.680;23.310;2023-09-19T08:13:21;8.13;;;6.70;;
5379;SDS011;2713;42.680;23.310;2023-09-19T08:15:48;7.90;;;7.17;;
5379;SDS011;2713;42.680;23.310;2023-09-19T08:18:16;7.93;;;6.20;;
5379;SDS011;2713;42.680;23.310;2023-09-19T08:20:43;12.37;;;9.10;;
5379;SDS011;2713;42.680;23.310;2023-09-19T08:23:17;11.30;;;7.27;;
5379;SDS011;2713;42.680;23.310;2023-09-19T08:25:46;11.00;;;6.67;;
5379;SDS011;2713;42.680;23.310;2023-09-19T08:28:13;7.77;;;6.93;;
5379;SDS011;2713;42.680;23.310;2023-09-19T08:30:44;7.20;;;6.50;;
5379;SDS011;2713;42.680;23.310;2023-09-19T08:33:11;10.10;;;7.80;;
5379;SDS011;2713;42.680;23.310;2023-09-19T08:35:40;9.33;;;6.80;;
5379;SDS011;2713;42.680;23.310;2023-09-19T08:38:08;8.50;;;7.20;;
5379;SDS011;2713;42.680;23.310;2023-09-19T08:40:38;11.70;;;7.10;;
5379;SDS011;2713;42.680;23.310;2023-09-19T08:43:09;12.63;;;8.70;;
5379;SDS011;2713;42.680;23.310;2023-09-19T08:45:36;7.43;;;6.63;;
5379;SDS011;2713;42.680;23.310;2023-09-19T08:48:18;9.13;;;7.17;;
5379;SDS011;2713;42.680;23.310;2023-09-19T08:50:51;8.73;;;7.50;;
5379;SDS011;2713;42.680;23.310;2023-09-19T08:53:26;11.73;;;6.50;;
5379;SDS011;2713;42.680;23.310;2023-09-19T08:56:01;7.80;;;6.80;;
5379;SDS011;2713;42.680;23.310;2023-09-19T08:58:31;8.10;;;6.97;;
5379;SDS011;2713;42.680;23.310;2023-09-19T09:01:06;9.50;;;6.53;;
5379;SDS011;2713;42.680;23.310;2023-09-19T09:03:35;11.67;;;6.43;;
5379;SDS011;2713;42.680;23.310;2023-09-19T09:06:07;8.27;;;7.43;;
5379;SDS011;2713;42.680;23.310;2023-09-19T09:08:36;13.57;;;8.17;;
5379;SDS011;2713;42.680;23.310;2023-09-19T09:11:05;9.53;;;7.27;;
5379;SDS011;2713;42.680;23.310;2023-09-19T09:13:34;11.53;;;8.40;;
5379;SDS011;2713;42.680;23.310;2023-09-19T09:16:02;9.00;;;7.60;;
5379;SDS011;2713;42.680;23.310;2023-09-19T09:18:29;7.93;;;7.13;;
5379;SDS011;2713;42.680;23.310;2023-09-19T09:20:56;8.80;;;6.83;;
5379;SDS011;2713;42.680;23.310;2023-09-19T09:23:23;11.60;;;7.97;;
5379;SDS011;2713;42.680;23.310;2023-09-19T09:25:51;10.70;;;7.80;;
5379;SDS011;2713;42.680;23.310;2023-09-19T09:28:26;8.37;;;7.30;;
5379;SDS011;2713;42.680;23.310;2023-09-19T09:30:54;9.40;;;7.10;;
5379;SDS011;2713;42.680;23.310;2023-09-19T09:33:21;11.03;;;7.77;;
5379;SDS011;2713;42.680;23.310;2023-09-19T09:35:49;14.10;;;9.80;;
5379;SDS011;2713;42.680;23.310;2023-09-19T09:38:18;9.17;;;8.20;;
5379;SDS011;2713;42.680;23.310;2023-09-19T09:40:46;9.03;;;7.70;;
5379;SDS011;2713;42.680;23.310;2023-09-19T09:43:32;9.63;;;8.40;;
5379;SDS011;2713;42.680;23.310;2023-09-19T09:46:08;9.00;;;7.33;;
5379;SDS011;2713;42.680;23.310;2023-09-19T09:48:58;8.77;;;7.50;;
5379;SDS011;2713;42.680;23.310;2023-09-19T09:51:44;9.63;;;8.00;;
5379;SDS011;2713;42.680;23.310;2023-09-19T09:54:23;8.73;;;7.83;;
5379;SDS011;2713;42.680;23.310;2023-09-19T09:56:55;10.13;;;8.20;;
5379;SDS011;2713;42.680;23.310;2023-09-19T09:59:45;9.60;;;8.30;;
5379;SDS011;2713;42.680;23.310;2023-09-19T10:02:15;14.37;;;9.40;;
5379;SDS011;2713;42.680;23.310;2023-09-19T10:04:48;8.00;;;7.20;;
5379;SDS011;2713;42.680;23.310;2023-09-19T10:07:33;7.33;;;6.63;;
5379;SDS011;2713;42.680;23.310;2023-09-19T10:10:01;8.10;;;7.23;;
5379;SDS011;2713;42.680;23.310;2023-09-19T10:12:47;9.47;;;7.20;;
5379;SDS011;2713;42.680;23.310;2023-09-19T10:15:17;9.03;;;7.67;;
5379;SDS011;2713;42.680;23.310;2023-09-19T10:17:46;11.80;;;7.50;;
5379;SDS011;2713;42.680;23.310;2023-09-19T10:20:14;8.40;;;7.17;;
5379;SDS011;2713;42.680;23.310;2023-09-19T10:23:02;9.97;;;7.00;;
5379;SDS011;2713;42.680;23.310;2023-09-19T10:25:34;9.97;;;6.80;;
5379;SDS011;2713;42.680;23.310;2023-09-19T10:28:05;7.33;;;6.53;;
5379;SDS011;2713;42.680;23.310;2023-09-19T10:30:37;10.27;;;7.20;;
5379;SDS011;2713;42.680;23.310;2023-09-19T10:33:09;7.63;;;6.90;;
5379;SDS011;2713;42.680;23.310;2023-09-19T10:35:38;10.93;;;6.47;;
5379;SDS011;2713;42.680;23.310;2023-09-19T10:38:06;7.70;;;7.00;;
5379;SDS011;2713;42.680;23.310;2023-09-19T10:40:36;9.70;;;7.40;;
5379;SDS011;2713;42.680;23.310;2023-09-19T10:43:10;9.10;;;7.70;;
5379;SDS011;2713;42.680;23.310;2023-09-19T10:45:41;8.83;;;7.30;;
5379;SDS011;2713;42.680;23.310;2023-09-19T10:48:10;7.90;;;6.53;;
5379;SDS011;2713;42.680;23.310;2023-09-19T10:50:41;10.23;;;7.80;;
5379;SDS011;2713;42.680;23.310;2023-09-19T10:53:12;11.20;;;7.30;;
5379;SDS011;2713;42.680;23.310;2023-09-19T10:55:40;8.27;;;7.50;;
5379;SDS011;2713;42.680;23.310;2023-09-19T10:58:24;7.87;;;7.07;;
5379;SDS011;2713;42.680;23.310;2023-09-19T11:00:53;7.20;;;6.53;;
5379;SDS011;2713;42.680;23.310;2023-09-19T11:03:21;9.70;;;7.03;;
5379;SDS011;2713;42.680;23.310;2023-09-19T11:08:54;7.80;;;7.00;;
5379;SDS011;2713;42.680;23.310;2023-09-19T11:11:39;8.23;;;6.73;;
5379;SDS011;2713;42.680;23.310;2023-09-19T11:14:14;8.47;;;7.00;;
5379;SDS011;2713;42.680;23.310;2023-09-19T11:23:22;11.53;;;8.60;;
5379;SDS011;2713;42.680;23.310;2023-09-19T11:25:53;9.53;;;7.00;;
5379;SDS011;2713;42.680;23.310;2023-09-19T11:28:27;9.43;;;7.87;;
5379;SDS011;2713;42.680;23.310;2023-09-19T11:30:58;7.70;;;7.00;;
5379;SDS011;2713;42.680;23.310;2023-09-19T11:33:46;9.40;;;7.30;;
5379;SDS011;2713;42.680;23.310;2023-09-19T11:36:16;10.70;;;7.90;;
5379;SDS011;2713;42.680;23.310;2023-09-19T11:38:57;10.00;;;7.40;;
5379;SDS011;2713;42.680;23.310;2023-09-19T11:41:39;9.13;;;7.20;;
5379;SDS011;2713;42.680;23.310;2023-09-19T11:47:00;8.23;;;7.43;;
5379;SDS011;2713;42.680;23.310;2023-09-19T11:49:29;8.80;;;7.80;;
5379;SDS011;2713;42.680;23.310;2023-09-19T11:51:59;9.10;;;7.70;;
5379;SDS011;2713;42.680;23.310;2023-09-19T11:54:30;10.63;;;8.00;;
5379;SDS011;2713;42.680;23.310;2023-09-19T11:56:58;10.60;;;7.60;;
5379;SDS011;2713;42.680;23.310;2023-09-19T11:59:26;8.37;;;7.50;;
5379;SDS011;2713;42.680;23.310;2023-09-19T12:01:55;10.50;;;8.00;;
5379;SDS011;2713;42.680;23.310;2023-09-19T12:04:36;9.80;;;7.73;;
5379;SDS011;2713;42.680;23.310;2023-09-19T12:07:08;10.93;;;7.67;;
5379;SDS011;2713;42.680;23.310;2023-09-19T12:09:40;9.27;;;7.90;;
5379;SDS011;2713;42.680;23.310;2023-09-19T12:12:09;13.40;;;7.90;;
5379;SDS011;2713;42.680;23.310;2023-09-19T12:14:37;8.60;;;7.30;;
5379;SDS011;2713;42.680;23.310;2023-09-19T12:17:07;8.13;;;7.33;;
5379;SDS011;2713;42.680;23.310;2023-09-19T12:19:34;8.30;;;7.50;;
5379;SDS011;2713;42.680;23.310;2023-09-19T12:22:01;10.30;;;7.40;;
5379;SDS011;2713;42.680;23.310;2023-09-19T12:24:32;9.60;;;8.13;;
5379;SDS011;2713;42.680;23.310;2023-09-19T12:27:02;11.97;;;7.97;;
5379;SDS011;2713;42.680;23.310;2023-09-19T12:29:31;8.30;;;7.40;;
5379;SDS011;2713;42.680;23.310;2023-09-19T12:31:59;11.83;;;8.00;;
5379;SDS011;2713;42.680;23.310;2023-09-19T12:34:29;10.03;;;8.13;;
5379;SDS011;2713;42.680;23.310;2023-09-19T12:39:49;8.50;;;6.97;;
5379;SDS011;2713;42.680;23.310;2023-09-19T12:42:20;9.83;;;7.57;;
5379;SDS011;2713;42.680;23.310;2023-09-19T12:44:49;10.53;;;7.43;;
5379;SDS011;2713;42.680;23.310;2023-09-19T12:47:20;20.53;;;8.40;;
5379;SDS011;2713;42.680;23.310;2023-09-19T12:50:08;9.17;;;7.60;;
5379;SDS011;2713;42.680;23.310;2023-09-19T12:52:40;13.73;;;7.50;;
5379;SDS011;2713;42.680;23.310;2023-09-19T12:55:20;10.13;;;7.87;;
5379;SDS011;2713;42.680;23.310;2023-09-19T12:57:55;7.50;;;6.80;;
5379;SDS011;2713;42.680;23.310;2023-09-19T13:00:33;9.33;;;7.23;;
5379;SDS011;2713;42.680;23.310;2023-09-19T13:03:14;7.90;;;7.00;;
5379;SDS011;2713;42.680;23.310;2023-09-19T13:05:49;8.40;;;7.60;;
5379;SDS011;2713;42.680;23.310;2023-09-19T13:08:21;9.17;;;7.80;;
5379;SDS011;2713;42.680;23.310;2023-09-19T13:11:05;9.50;;;8.00;;
5379;SDS011;2713;42.680;23.310;2023-09-19T13:13:35;10.43;;;7.70;;
5379;SDS011;2713;42.680;23.310;2023-09-19T13:16:03;10.17;;;8.00;;
5379;SDS011;2713;42.680;23.310;2023-09-19T13:18:41;9.60;;;8.37;;
5379;SDS011;2713;42.680;23.310;2023-09-19T13:21:10;7.23;;;6.63;;
5379;SDS011;2713;42.680;23.310;2023-09-19T13:23:47;8.23;;;7.27;;
5379;SDS011;2713;42.680;23.310;2023-09-19T13:26:20;8.60;;;7.50;;
5379;SDS011;2713;42.680;23.310;2023-09-19T13:28:48;8.30;;;7.33;;
5379;SDS011;2713;42.680;23.310;2023-09-19T13:31:17;8.17;;;7.10;;
5379;SDS011;2713;42.680;23.310;2023-09-19T13:33:44;9.60;;;7.23;;
5379;SDS011;2713;42.680;23.310;2023-09-19T13:36:12;8.10;;;7.40;;
5379;SDS011;2713;42.680;23.310;2023-09-19T13:38:39;8.33;;;7.63;;
5379;SDS011;2713;42.680;23.310;2023-09-19T13:41:08;8.57;;;7.70;;
5379;SDS011;2713;42.680;23.310;2023-09-19T13:43:37;10.10;;;7.40;;
5379;SDS011;2713;42.680;23.310;2023-09-19T13:46:04;10.60;;;7.43;;
5379;SDS011;2713;42.680;23.310;2023-09-19T13:48:37;8.30;;;7.43;;
5379;SDS011;2713;42.680;23.310;2023-09-19T13:51:04;7.80;;;7.03;;
5379;SDS011;2713;42.680;23.310;2023-09-19T13:53:30;10.20;;;7.30;;
5379;SDS011;2713;42.680;23.310;2023-09-19T13:55:57;8.23;;;7.53;;
5379;SDS011;2713;42.680;23.310;2023-09-19T13:58:24;9.07;;;7.87;;
5379;SDS011;2713;42.680;23.310;2023-09-19T14:00:55;9.77;;;8.30;;
5379;SDS011;2713;42.680;23.310;2023-09-19T14:03:23;8.30;;;7.50;;
5379;SDS011;2713;42.680;23.310;2023-09-19T14:05:53;7.97;;;7.17;;
5379;SDS011;2713;42.680;23.310;2023-09-19T14:08:20;8.50;;;7.70;;
5379;SDS011;2713;42.680;23.310;2023-09-19T14:10:48;9.93;;;7.30;;
5379;SDS011;2713;42.680;23.310;2023-09-19T14:13:15;8.07;;;7.17;;
5379;SDS011;2713;42.680;23.310;2023-09-19T14:15:42;10.90;;;8.13;;
5379;SDS011;2713;42.680;23.310;2023-09-19T14:18:10;9.73;;;8.70;;
5379;SDS011;2713;42.680;23.310;2023-09-19T14:20:37;10.73;;;8.20;;
5379;SDS011;2713;42.680;23.310;2023-09-19T14:23:05;9.57;;;8.13;;
5379;SDS011;2713;42.680;23.310;2023-09-19T14:25:33;8.63;;;7.67;;
5379;SDS011;2713;42.680;23.310;2023-09-19T14:28:00;9.50;;;7.80;;
5379;SDS011;2713;42.680;23.310;2023-09-19T14:30:27;10.93;;;8.33;;
5379;SDS011;2713;42.680;23.310;2023-09-19T14:32:54;9.63;;;8.10;;
5379;SDS011;2713;42.680;23.310;2023-09-19T14:35:24;10.97;;;9.10;;
5379;SDS011;2713;42.680;23.310;2023-09-19T14:37:51;9.73;;;7.70;;
5379;SDS011;2713;42.680;23.310;2023-09-19T14:40:19;8.60;;;7.83;;
5379;SDS011;2713;42.680;23.310;2023-09-19T14:42:47;11.90;;;8.03;;
5379;SDS011;2713;42.680;23.310;2023-09-19T14:45:14;11.70;;;8.20;;
5379;SDS011;2713;42.680;23.310;2023-09-19T14:47:43;10.83;;;8.40;;
5379;SDS011;2713;42.680;23.310;2023-09-19T14:50:10;10.10;;;8.33;;
5379;SDS011;2713;42.680;23.310;2023-09-19T14:52:39;9.43;;;7.83;;
5379;SDS011;2713;42.680;23.310;2023-09-19T14:55:06;9.33;;;8.43;;
5379;SDS011;2713;42.680;23.310;2023-09-19T14:57:39;8.60;;;7.80;;
5379;SDS011;2713;42.680;23.310;2023-09-19T15:00:08;11.40;;;8.23;;
5379;SDS011;2713;42.680;23.310;2023-09-19T15:02:37;12.77;;;9.00;;
5379;SDS011;2713;42.680;23.310;2023-09-19T15:05:06;9.10;;;8.20;;
5379;SDS011;2713;42.680;23.310;2023-09-19T15:07:34;10.00;;;8.20;;
5379;SDS011;2713;42.680;23.310;2023-09-19T15:10:04;9.00;;;8.10;;
5379;SDS011;2713;42.680;23.310;2023-09-19T15:12:35;8.97;;;8.10;;
5379;SDS011;2713;42.680;23.310;2023-09-19T15:15:03;9.83;;;8.50;;
5379;SDS011;2713;42.680;23.310;2023-09-19T15:17:33;9.57;;;8.00;;
5379;SDS011;2713;42.680;23.310;2023-09-19T15:20:00;10.13;;;8.77;;
5379;SDS011;2713;42.680;23.310;2023-09-19T15:22:28;9.17;;;8.37;;
5379;SDS011;2713;42.680;23.310;2023-09-19T15:24:55;10.70;;;8.53;;
5379;SDS011;2713;42.680;23.310;2023-09-19T15:27:23;11.43;;;8.80;;
5379;SDS011;2713;42.680;23.310;2023-09-19T15:29:50;13.57;;;9.40;;
5379;SDS011;2713;42.680;23.310;2023-09-19T15:32:17;9.97;;;8.47;;